PWSweather.com
Personal Weather Stations
Station Observations
KMAMEDFI2
Medfield, MA 02052

Medfield, MA 02052

Lat: 42.1900822, Lon: -71.3296889

Elevation: 138

Station Type: Rainwise WS MK-III

http://www.medfieldweather.com

High Low Average
Temperature 37.7°F3.2°C 18.0°F-7.8°C 26.2°F-3.2°C
Dew Point 32.8°F0.4°C 7.2°F-13.8°C 13.1°F-10.5°C
Winds 6.9 mph 11.1 kmh Calm Calm 2.0 mph SW3.2 kmh SW
Wind Gusts 11.5 mph18.5 kmh -- 3.0 mph4.8 kmh
Humidity 85% 39% 58%
Pressure 30.10 in1019.3 mb 29.91 in1012.9 mb -
Precipitation 0.00 in0.0 mm - -
Hour Temp Dew Point Humidity Winds Wind Gusts Pressure Precip Precip Rate Daily Precip Total
12:00 AM 38.8°F3.8°C 33.5°F0.8°C 81% 2.3 mph SSW3.7 kmh SSW 2.3 mph3.7 kmh 29.91 in1012.9 mb - 0.00 in0.0 mm 0.00 in0.0 mm
12:10 AM 38.5°F3.6°C 33.5°F0.8°C 82% Calm Calm -- 29.91 in1012.9 mb - 0.00 in0.0 mm 0.00 in0.0 mm
12:20 AM 37.8°F3.2°C 33.1°F0.6°C 83% Calm Calm -- 29.91 in1012.9 mb - 0.00 in0.0 mm 0.00 in0.0 mm
12:30 AM 37.3°F2.9°C 33.2°F0.7°C 85% 2.3 mph S3.7 kmh S 2.3 mph3.7 kmh 29.90 in1012.5 mb - 0.00 in0.0 mm 0.00 in0.0 mm
12:40 AM 37.2°F2.9°C 33.1°F0.6°C 85% Calm Calm 2.3 mph3.7 kmh 29.91 in1012.9 mb - 0.00 in0.0 mm 0.00 in0.0 mm
12:50 AM 37.1°F2.8°C 33.0°F0.6°C 85% Calm Calm -- 29.91 in1012.9 mb - 0.00 in0.0 mm 0.00 in0.0 mm
01:00 AM 36.8°F2.7°C 32.7°F0.4°C 85% 1.2 mph W1.9 kmh W 1.2 mph1.9 kmh 29.91 in1012.9 mb - 0.00 in0.0 mm 0.00 in0.0 mm
01:10 AM 36.6°F2.6°C 32.5°F0.3°C 85% Calm Calm 1.2 mph1.9 kmh 29.91 in1012.9 mb - 0.00 in0.0 mm 0.00 in0.0 mm
01:20 AM 36.9°F2.7°C 32.8°F0.4°C 85% Calm Calm -- 29.91 in1012.9 mb - 0.00 in0.0 mm 0.00 in0.0 mm
01:30 AM 36.9°F2.7°C 32.2°F0.1°C 83% 2.3 mph WSW3.7 kmh WSW 2.3 mph3.7 kmh 29.91 in1012.9 mb - 0.00 in0.0 mm 0.00 in0.0 mm
01:40 AM 37.5°F3.1°C 32.2°F0.1°C 81% 3.5 mph WNW5.6 kmh WNW 2.3 mph3.7 kmh 29.92 in1013.2 mb - 0.00 in0.0 mm 0.00 in0.0 mm
01:50 AM 37.6°F3.1°C 32.0°F0.0°C 80% 2.3 mph WSW3.7 kmh WSW 2.3 mph3.7 kmh 29.92 in1013.2 mb - 0.00 in0.0 mm 0.00 in0.0 mm
02:00 AM 37.7°F3.2°C 32.1°F0.1°C 80% 2.3 mph W3.7 kmh W 3.5 mph5.6 kmh 29.93 in1013.5 mb - 0.00 in0.0 mm 0.00 in0.0 mm
02:10 AM 37.6°F3.1°C 31.9°F-0.1°C 80% 2.3 mph W3.7 kmh W 5.8 mph9.3 kmh 29.93 in1013.5 mb - 0.00 in0.0 mm 0.00 in0.0 mm
02:20 AM 36.8°F2.7°C 30.3°F-0.9°C 77% 4.6 mph W7.4 kmh W 3.5 mph5.6 kmh 29.94 in1013.9 mb - 0.00 in0.0 mm 0.00 in0.0 mm
02:30 AM 35.8°F2.1°C 29.3°F-1.5°C 77% 5.8 mph NW9.3 kmh NW 6.9 mph11.1 kmh 29.95 in1014.2 mb - 0.00 in0.0 mm 0.00 in0.0 mm
02:40 AM 35.0°F1.7°C 28.5°F-1.9°C 77% 3.5 mph SW5.6 kmh SW 5.8 mph9.3 kmh 29.95 in1014.2 mb - 0.00 in0.0 mm 0.00 in0.0 mm
02:50 AM 34.4°F1.3°C 28.2°F-2.1°C 78% 4.6 mph WNW7.4 kmh WNW 8.1 mph13.0 kmh 29.95 in1014.2 mb - 0.00 in0.0 mm 0.00 in0.0 mm
03:00 AM 34.0°F1.1°C 28.1°F-2.2°C 79% 1.2 mph W1.9 kmh W 2.3 mph3.7 kmh 29.96 in1014.6 mb - 0.00 in0.0 mm 0.00 in0.0 mm
03:10 AM 33.7°F0.9°C 28.2°F-2.1°C 80% 3.5 mph W5.6 kmh W 6.9 mph11.1 kmh 29.96 in1014.6 mb - 0.00 in0.0 mm 0.00 in0.0 mm
03:20 AM 33.4°F0.8°C 27.3°F-2.6°C 78% 3.5 mph NW5.6 kmh NW 5.8 mph9.3 kmh 29.96 in1014.6 mb - 0.00 in0.0 mm 0.00 in0.0 mm
03:30 AM 33.2°F0.7°C 26.5°F-3.1°C 76% 4.6 mph WSW7.4 kmh WSW 9.2 mph14.8 kmh 29.96 in1014.6 mb - 0.00 in0.0 mm 0.00 in0.0 mm
03:40 AM 32.9°F0.5°C 26.2°F-3.2°C 76% 4.6 mph WSW7.4 kmh WSW 5.8 mph9.3 kmh 29.96 in1014.6 mb - 0.00 in0.0 mm 0.00 in0.0 mm
03:50 AM 32.6°F0.3°C 25.9°F-3.4°C 76% 2.3 mph W3.7 kmh W 5.8 mph9.3 kmh 29.95 in1014.2 mb - 0.00 in0.0 mm 0.00 in0.0 mm
04:00 AM 32.3°F0.2°C 24.9°F-3.9°C 74% 4.6 mph W7.4 kmh W 6.9 mph11.1 kmh 29.95 in1014.2 mb - 0.00 in0.0 mm 0.00 in0.0 mm
04:10 AM 31.9°F-0.1°C 23.9°F-4.5°C 72% 5.8 mph WSW9.3 kmh WSW 10.4 mph16.7 kmh 29.96 in1014.6 mb - 0.00 in0.0 mm 0.00 in0.0 mm
04:20 AM 31.5°F-0.3°C 23.1°F-4.9°C 71% 4.6 mph WNW7.4 kmh WNW 6.9 mph11.1 kmh 29.95 in1014.2 mb - 0.00 in0.0 mm 0.00 in0.0 mm
04:30 AM 30.9°F-0.6°C 22.6°F-5.2°C 71% 4.6 mph WSW7.4 kmh WSW 2.3 mph3.7 kmh 29.95 in1014.2 mb - 0.00 in0.0 mm 0.00 in0.0 mm
04:40 AM 30.4°F-0.9°C 22.4°F-5.3°C 72% 1.2 mph WSW1.9 kmh WSW 2.3 mph3.7 kmh 29.96 in1014.6 mb - 0.00 in0.0 mm 0.00 in0.0 mm
04:50 AM 29.9°F-1.2°C 21.9°F-5.6°C 72% Calm Calm 2.3 mph3.7 kmh 29.97 in1014.9 mb - 0.00 in0.0 mm 0.00 in0.0 mm
05:00 AM 29.5°F-1.4°C 20.2°F-6.6°C 68% 6.9 mph WNW11.1 kmh WNW 11.5 mph18.5 kmh 29.97 in1014.9 mb - 0.00 in0.0 mm 0.00 in0.0 mm
05:10 AM 29.1°F-1.6°C 18.8°F-7.3°C 65% 5.8 mph NW9.3 kmh NW 8.1 mph13.0 kmh 29.97 in1014.9 mb - 0.00 in0.0 mm 0.00 in0.0 mm
05:20 AM 28.7°F-1.8°C 18.4°F-7.6°C 65% 1.2 mph W1.9 kmh W 2.3 mph3.7 kmh 29.98 in1015.2 mb - 0.00 in0.0 mm 0.00 in0.0 mm
05:30 AM 28.1°F-2.2°C 17.5°F-8.1°C 64% 4.6 mph WNW7.4 kmh WNW 6.9 mph11.1 kmh 29.98 in1015.2 mb - 0.00 in0.0 mm 0.00 in0.0 mm
05:40 AM 27.9°F-2.3°C 17.3°F-8.2°C 64% 3.5 mph WSW5.6 kmh WSW 6.9 mph11.1 kmh 29.98 in1015.2 mb - 0.00 in0.0 mm 0.00 in0.0 mm
05:50 AM 27.5°F-2.5°C 16.5°F-8.6°C 63% 4.6 mph W7.4 kmh W 5.8 mph9.3 kmh 29.98 in1015.2 mb - 0.00 in0.0 mm 0.00 in0.0 mm
06:00 AM 27.2°F-2.7°C 16.6°F-8.6°C 64% 3.5 mph SSW5.6 kmh SSW 5.8 mph9.3 kmh 29.99 in1015.6 mb - 0.00 in0.0 mm 0.00 in0.0 mm
06:10 AM 26.8°F-2.9°C 16.2°F-8.8°C 64% 1.2 mph W1.9 kmh W 10.4 mph16.7 kmh 29.98 in1015.2 mb - 0.00 in0.0 mm 0.00 in0.0 mm
06:20 AM 26.5°F-3.1°C 16.0°F-8.9°C 64% 3.5 mph WSW5.6 kmh WSW 2.3 mph3.7 kmh 29.98 in1015.2 mb - 0.00 in0.0 mm 0.00 in0.0 mm
06:30 AM 26.1°F-3.3°C 15.5°F-9.2°C 64% 3.5 mph W5.6 kmh W 2.3 mph3.7 kmh 30.00 in1015.9 mb - 0.00 in0.0 mm 0.00 in0.0 mm
06:40 AM 25.6°F-3.6°C 14.4°F-9.8°C 62% 2.3 mph SW3.7 kmh SW 2.3 mph3.7 kmh 30.00 in1015.9 mb - 0.00 in0.0 mm 0.00 in0.0 mm
06:50 AM 25.4°F-3.7°C 13.8°F-10.1°C 61% 5.8 mph NW9.3 kmh NW 6.9 mph11.1 kmh 30.00 in1015.9 mb - 0.00 in0.0 mm 0.00 in0.0 mm
07:00 AM 25.2°F-3.8°C 13.6°F-10.2°C 61% 2.3 mph WSW3.7 kmh WSW 5.8 mph9.3 kmh 30.01 in1016.3 mb - 0.00 in0.0 mm 0.00 in0.0 mm
07:10 AM 24.8°F-4.0°C 13.6°F-10.2°C 62% 2.3 mph N3.7 kmh N 2.3 mph3.7 kmh 30.00 in1015.9 mb - 0.00 in0.0 mm 0.00 in0.0 mm
07:20 AM 24.3°F-4.3°C 13.5°F-10.3°C 63% Calm Calm -- 30.00 in1015.9 mb - 0.00 in0.0 mm 0.00 in0.0 mm
07:30 AM 23.9°F-4.5°C 13.8°F-10.1°C 65% 3.5 mph NW5.6 kmh NW 3.5 mph5.6 kmh 30.00 in1015.9 mb - 0.00 in0.0 mm 0.00 in0.0 mm
07:40 AM 23.9°F-4.5°C 13.1°F-10.5°C 63% 1.2 mph SW1.9 kmh SW 2.3 mph3.7 kmh 30.01 in1016.3 mb - 0.00 in0.0 mm 0.00 in0.0 mm
07:50 AM 23.8°F-4.6°C 12.3°F-10.9°C 61% 3.5 mph E5.6 kmh E 8.1 mph13.0 kmh 30.00 in1015.9 mb - 0.00 in0.0 mm 0.00 in0.0 mm
08:00 AM 23.4°F-4.8°C 10.8°F-11.8°C 58% 3.5 mph NE5.6 kmh NE 2.3 mph3.7 kmh 30.01 in1016.3 mb - 0.00 in0.0 mm 0.00 in0.0 mm
08:10 AM 22.9°F-5.1°C 9.5°F-12.5°C 56% 2.3 mph SW3.7 kmh SW 2.3 mph3.7 kmh 30.00 in1015.9 mb - 0.00 in0.0 mm 0.00 in0.0 mm
08:20 AM 22.5°F-5.3°C 9.5°F-12.5°C 57% 2.3 mph SW3.7 kmh SW 2.3 mph3.7 kmh 30.00 in1015.9 mb - 0.00 in0.0 mm 0.00 in0.0 mm
08:30 AM 22.4°F-5.3°C 9.1°F-12.7°C 56% 4.6 mph NW7.4 kmh NW 5.8 mph9.3 kmh 30.00 in1015.9 mb - 0.00 in0.0 mm 0.00 in0.0 mm
08:40 AM 22.1°F-5.5°C 9.6°F-12.4°C 58% 2.3 mph W3.7 kmh W 10.4 mph16.7 kmh 29.99 in1015.6 mb - 0.00 in0.0 mm 0.00 in0.0 mm
08:50 AM 21.9°F-5.6°C 10.1°F-12.2°C 60% Calm Calm 1.2 mph1.9 kmh 29.99 in1015.6 mb - 0.00 in0.0 mm 0.00 in0.0 mm
09:00 AM 22.0°F-5.6°C 9.8°F-12.3°C 59% 2.3 mph W3.7 kmh W 2.3 mph3.7 kmh 30.00 in1015.9 mb - 0.00 in0.0 mm 0.00 in0.0 mm
09:10 AM 22.2°F-5.4°C 10.4°F-12.0°C 60% 3.5 mph WNW5.6 kmh WNW 8.1 mph13.0 kmh 30.02 in1016.6 mb - 0.00 in0.0 mm 0.00 in0.0 mm
09:20 AM 22.1°F-5.5°C 10.7°F-11.8°C 61% 1.2 mph NNE1.9 kmh NNE 2.3 mph3.7 kmh 30.04 in1017.3 mb - 0.00 in0.0 mm 0.00 in0.0 mm
09:30 AM 22.1°F-5.5°C 10.7°F-11.8°C 61% 1.2 mph WSW1.9 kmh WSW 2.3 mph3.7 kmh 30.05 in1017.6 mb - 0.00 in0.0 mm 0.00 in0.0 mm
09:40 AM 22.3°F-5.4°C 10.5°F-11.9°C 60% 2.3 mph WSW3.7 kmh WSW 5.8 mph9.3 kmh 30.05 in1017.6 mb - 0.00 in0.0 mm 0.00 in0.0 mm
09:50 AM 22.8°F-5.1°C 11.0°F-11.7°C 60% 2.3 mph W3.7 kmh W 2.3 mph3.7 kmh 30.07 in1018.3 mb - 0.00 in0.0 mm 0.00 in0.0 mm
10:00 AM 23.2°F-4.9°C 10.6°F-11.9°C 58% 1.2 mph WSW1.9 kmh WSW 2.3 mph3.7 kmh 30.07 in1018.3 mb - 0.00 in0.0 mm 0.00 in0.0 mm
10:10 AM 23.5°F-4.7°C 10.5°F-11.9°C 57% 1.2 mph N1.9 kmh N 2.3 mph3.7 kmh 30.07 in1018.3 mb - 0.00 in0.0 mm 0.00 in0.0 mm
10:20 AM 23.5°F-4.7°C 8.9°F-12.8°C 53% 2.3 mph WNW3.7 kmh WNW 9.2 mph14.8 kmh 30.08 in1018.6 mb - 0.00 in0.0 mm 0.00 in0.0 mm
10:30 AM 23.8°F-4.6°C 8.3°F-13.2°C 51% 1.2 mph WNW1.9 kmh WNW 8.1 mph13.0 kmh 30.08 in1018.6 mb - 0.00 in0.0 mm 0.00 in0.0 mm
10:40 AM 24.4°F-4.2°C 8.4°F-13.1°C 50% 2.3 mph NW3.7 kmh NW 2.3 mph3.7 kmh 30.08 in1018.6 mb - 0.00 in0.0 mm 0.00 in0.0 mm
10:50 AM 24.5°F-4.2°C 7.6°F-13.6°C 48% 4.6 mph SSE7.4 kmh SSE 5.8 mph9.3 kmh 30.08 in1018.6 mb - 0.00 in0.0 mm 0.00 in0.0 mm
11:00 AM 24.6°F-4.1°C 7.7°F-13.5°C 48% 4.6 mph NNW7.4 kmh NNW 2.3 mph3.7 kmh 30.07 in1018.3 mb - 0.00 in0.0 mm 0.00 in0.0 mm
11:10 AM 25.1°F-3.8°C 8.1°F-13.3°C 48% 3.5 mph E5.6 kmh E 3.5 mph5.6 kmh 30.08 in1018.6 mb - 0.00 in0.0 mm 0.00 in0.0 mm
11:20 AM 25.6°F-3.6°C 8.1°F-13.3°C 47% 2.3 mph WSW3.7 kmh WSW 2.3 mph3.7 kmh 30.09 in1019.0 mb - 0.00 in0.0 mm 0.00 in0.0 mm
11:30 AM 25.9°F-3.4°C 7.4°F-13.7°C 45% 3.5 mph WSW5.6 kmh WSW 3.5 mph5.6 kmh 30.10 in1019.3 mb - 0.00 in0.0 mm 0.00 in0.0 mm
11:40 AM 25.9°F-3.4°C 8.4°F-13.1°C 47% 2.3 mph W3.7 kmh W 5.8 mph9.3 kmh 30.10 in1019.3 mb - 0.00 in0.0 mm 0.00 in0.0 mm
11:50 AM 25.6°F-3.6°C 7.2°F-13.8°C 45% 1.2 mph WSW1.9 kmh WSW 1.2 mph1.9 kmh 30.10 in1019.3 mb - 0.00 in0.0 mm 0.00 in0.0 mm
12:00 PM 26.4°F-3.1°C 7.9°F-13.4°C 45% 3.5 mph SSW5.6 kmh SSW 5.8 mph9.3 kmh 30.10 in1019.3 mb - 0.00 in0.0 mm 0.00 in0.0 mm
12:10 PM 28.1°F-2.2°C 9.4°F-12.6°C 45% 2.3 mph WNW3.7 kmh WNW 5.8 mph9.3 kmh 30.08 in1018.6 mb - 0.00 in0.0 mm 0.00 in0.0 mm
12:20 PM 28.9°F-1.7°C 8.6°F-13.0°C 42% 4.6 mph E7.4 kmh E 6.9 mph11.1 kmh 30.07 in1018.3 mb - 0.00 in0.0 mm 0.00 in0.0 mm
12:30 PM 28.6°F-1.9°C 7.3°F-13.7°C 40% 2.3 mph NW3.7 kmh NW 3.5 mph5.6 kmh 30.07 in1018.3 mb - 0.00 in0.0 mm 0.00 in0.0 mm
12:40 PM 28.9°F-1.7°C 8.6°F-13.0°C 42% 2.3 mph SE3.7 kmh SE 5.8 mph9.3 kmh 30.06 in1017.9 mb - 0.00 in0.0 mm 0.00 in0.0 mm
12:50 PM 29.2°F-1.6°C 7.8°F-13.4°C 40% 1.2 mph SW1.9 kmh SW 1.2 mph1.9 kmh 30.07 in1018.3 mb - 0.00 in0.0 mm 0.00 in0.0 mm
01:00 PM 29.7°F-1.3°C 8.3°F-13.2°C 40% 4.6 mph NW7.4 kmh NW 8.1 mph13.0 kmh 30.05 in1017.6 mb - 0.00 in0.0 mm 0.00 in0.0 mm
01:10 PM 30.0°F-1.1°C 9.2°F-12.7°C 41% 2.3 mph N3.7 kmh N 6.9 mph11.1 kmh 30.06 in1017.9 mb - 0.00 in0.0 mm 0.00 in0.0 mm
01:20 PM 30.6°F-0.8°C 9.1°F-12.7°C 40% 2.3 mph W3.7 kmh W 5.8 mph9.3 kmh 30.06 in1017.9 mb - 0.00 in0.0 mm 0.00 in0.0 mm
01:30 PM 31.0°F-0.6°C 9.4°F-12.6°C 40% 2.3 mph NW3.7 kmh NW 3.5 mph5.6 kmh 30.06 in1017.9 mb - 0.00 in0.0 mm 0.00 in0.0 mm
01:40 PM 30.6°F-0.8°C 8.5°F-13.1°C 39% Calm Calm 2.3 mph3.7 kmh 30.05 in1017.6 mb - 0.00 in0.0 mm 0.00 in0.0 mm
01:50 PM 30.8°F-0.7°C 8.7°F-12.9°C 39% 2.3 mph SE3.7 kmh SE 2.3 mph3.7 kmh 30.05 in1017.6 mb - 0.00 in0.0 mm 0.00 in0.0 mm
02:00 PM 30.7°F-0.7°C 9.7°F-12.4°C 41% 1.2 mph NW1.9 kmh NW 3.5 mph5.6 kmh 30.05 in1017.6 mb - 0.00 in0.0 mm 0.00 in0.0 mm
02:10 PM 31.5°F-0.3°C 9.9°F-12.3°C 40% 2.3 mph NNW3.7 kmh NNW 2.3 mph3.7 kmh 30.05 in1017.6 mb - 0.00 in0.0 mm 0.00 in0.0 mm
02:20 PM 30.8°F-0.7°C 9.3°F-12.6°C 40% 2.3 mph NW3.7 kmh NW 6.9 mph11.1 kmh 30.05 in1017.6 mb - 0.00 in0.0 mm 0.00 in0.0 mm
02:30 PM 30.3°F-0.9°C 8.9°F-12.8°C 40% 3.5 mph E5.6 kmh E 8.1 mph13.0 kmh 30.05 in1017.6 mb - 0.00 in0.0 mm 0.00 in0.0 mm
02:40 PM 30.0°F-1.1°C 9.6°F-12.4°C 42% 3.5 mph ESE5.6 kmh ESE 3.5 mph5.6 kmh 30.04 in1017.3 mb - 0.00 in0.0 mm 0.00 in0.0 mm
02:50 PM 30.3°F-0.9°C 9.4°F-12.6°C 41% 4.6 mph W7.4 kmh W 5.8 mph9.3 kmh 30.04 in1017.3 mb - 0.00 in0.0 mm 0.00 in0.0 mm
03:00 PM 30.4°F-0.9°C 10.0°F-12.2°C 42% 2.3 mph NE3.7 kmh NE 2.3 mph3.7 kmh 30.04 in1017.3 mb - 0.00 in0.0 mm 0.00 in0.0 mm
03:10 PM 30.9°F-0.6°C 10.5°F-11.9°C 42% 2.3 mph N3.7 kmh N 8.1 mph13.0 kmh 30.04 in1017.3 mb - 0.00 in0.0 mm 0.00 in0.0 mm
03:20 PM 30.5°F-0.8°C 9.0°F-12.8°C 40% 4.6 mph WNW7.4 kmh WNW 9.2 mph14.8 kmh 30.04 in1017.3 mb - 0.00 in0.0 mm 0.00 in0.0 mm
03:30 PM 30.3°F-0.9°C 10.0°F-12.2°C 42% 4.6 mph NW7.4 kmh NW 8.1 mph13.0 kmh 30.03 in1016.9 mb - 0.00 in0.0 mm 0.00 in0.0 mm
03:40 PM 29.1°F-1.6°C 9.4°F-12.6°C 43% 1.2 mph SSE1.9 kmh SSE 5.8 mph9.3 kmh 30.03 in1016.9 mb - 0.00 in0.0 mm 0.00 in0.0 mm
03:50 PM 28.5°F-1.9°C 9.4°F-12.6°C 44% 2.3 mph E3.7 kmh E 2.3 mph3.7 kmh 30.03 in1016.9 mb - 0.00 in0.0 mm 0.00 in0.0 mm
04:00 PM 28.6°F-1.9°C 9.4°F-12.6°C 44% 1.2 mph SW1.9 kmh SW 5.8 mph9.3 kmh 30.02 in1016.6 mb - 0.00 in0.0 mm 0.00 in0.0 mm
04:10 PM 28.4°F-2.0°C 9.2°F-12.7°C 44% Calm Calm 3.5 mph5.6 kmh 30.02 in1016.6 mb - 0.00 in0.0 mm 0.00 in0.0 mm
04:20 PM 28.1°F-2.2°C 9.0°F-12.8°C 44% 2.3 mph SW3.7 kmh SW 2.3 mph3.7 kmh 30.02 in1016.6 mb - 0.00 in0.0 mm 0.00 in0.0 mm
04:30 PM 27.9°F-2.3°C 9.8°F-12.3°C 46% 2.3 mph ENE3.7 kmh ENE 2.3 mph3.7 kmh 30.03 in1016.9 mb - 0.00 in0.0 mm 0.00 in0.0 mm
04:40 PM 27.7°F-2.4°C 9.1°F-12.7°C 45% 3.5 mph E5.6 kmh E 5.8 mph9.3 kmh 30.03 in1016.9 mb - 0.00 in0.0 mm 0.00 in0.0 mm
04:50 PM 27.4°F-2.6°C 8.8°F-12.9°C 45% 2.3 mph NE3.7 kmh NE 3.5 mph5.6 kmh 30.03 in1016.9 mb - 0.00 in0.0 mm 0.00 in0.0 mm
05:00 PM 27.2°F-2.7°C 9.2°F-12.7°C 46% 2.3 mph E3.7 kmh E 2.3 mph3.7 kmh 30.02 in1016.6 mb - 0.00 in0.0 mm 0.00 in0.0 mm
05:10 PM 27.1°F-2.7°C 10.0°F-12.2°C 48% 1.2 mph NE1.9 kmh NE 2.3 mph3.7 kmh 30.02 in1016.6 mb - 0.00 in0.0 mm 0.00 in0.0 mm
05:20 PM 26.9°F-2.8°C 9.8°F-12.3°C 48% 1.2 mph E1.9 kmh E 2.3 mph3.7 kmh 30.03 in1016.9 mb - 0.00 in0.0 mm 0.00 in0.0 mm
05:30 PM 26.6°F-3.0°C 10.0°F-12.2°C 49% 2.3 mph N3.7 kmh N 3.5 mph5.6 kmh 30.03 in1016.9 mb - 0.00 in0.0 mm 0.00 in0.0 mm
05:40 PM 26.2°F-3.2°C 9.2°F-12.7°C 48% 2.3 mph ENE3.7 kmh ENE 2.3 mph3.7 kmh 30.03 in1016.9 mb - 0.00 in0.0 mm 0.00 in0.0 mm
05:50 PM 25.9°F-3.4°C 9.3°F-12.6°C 49% Calm Calm -- 30.04 in1017.3 mb - 0.00 in0.0 mm 0.00 in0.0 mm
06:00 PM 25.3°F-3.7°C 8.4°F-13.1°C 48% 2.3 mph NW3.7 kmh NW 2.3 mph3.7 kmh 30.03 in1016.9 mb - 0.00 in0.0 mm 0.00 in0.0 mm
06:10 PM 25.3°F-3.7°C 9.2°F-12.7°C 50% Calm Calm 2.3 mph3.7 kmh 30.02 in1016.6 mb - 0.00 in0.0 mm 0.00 in0.0 mm
06:20 PM 24.9°F-3.9°C 8.9°F-12.8°C 50% 1.2 mph NW1.9 kmh NW 2.3 mph3.7 kmh 30.02 in1016.6 mb - 0.00 in0.0 mm 0.00 in0.0 mm
06:30 PM 24.8°F-4.0°C 8.7°F-12.9°C 50% Calm Calm -- 30.01 in1016.3 mb - 0.00 in0.0 mm 0.00 in0.0 mm
06:40 PM 24.4°F-4.2°C 8.8°F-12.9°C 51% Calm Calm 2.3 mph3.7 kmh 30.02 in1016.6 mb - 0.00 in0.0 mm 0.00 in0.0 mm
06:50 PM 24.0°F-4.4°C 8.4°F-13.1°C 51% Calm Calm 1.2 mph1.9 kmh 30.02 in1016.6 mb - 0.00 in0.0 mm 0.00 in0.0 mm
07:00 PM 23.7°F-4.6°C 8.6°F-13.0°C 52% Calm Calm -- 30.02 in1016.6 mb - 0.00 in0.0 mm 0.00 in0.0 mm
07:10 PM 23.1°F-4.9°C 8.4°F-13.1°C 53% Calm Calm 2.3 mph3.7 kmh 30.02 in1016.6 mb - 0.00 in0.0 mm 0.00 in0.0 mm
07:20 PM 22.9°F-5.1°C 8.3°F-13.2°C 53% Calm Calm -- 30.02 in1016.6 mb - 0.00 in0.0 mm 0.00 in0.0 mm
07:30 PM 22.8°F-5.1°C 8.6°F-13.0°C 54% Calm Calm -- 30.01 in1016.3 mb - 0.00 in0.0 mm 0.00 in0.0 mm
07:40 PM 22.4°F-5.3°C 8.7°F-12.9°C 55% Calm Calm -- 30.02 in1016.6 mb - 0.00 in0.0 mm 0.00 in0.0 mm
07:50 PM 21.6°F-5.8°C 9.4°F-12.6°C 59% Calm Calm -- 30.02 in1016.6 mb - 0.00 in0.0 mm 0.00 in0.0 mm
08:00 PM 20.7°F-6.3°C 8.9°F-12.8°C 60% Calm Calm -- 30.03 in1016.9 mb - 0.00 in0.0 mm 0.00 in0.0 mm
08:10 PM 20.3°F-6.5°C 9.3°F-12.6°C 62% Calm Calm -- 30.02 in1016.6 mb - 0.00 in0.0 mm 0.00 in0.0 mm
08:20 PM 20.1°F-6.6°C 9.5°F-12.5°C 63% Calm Calm -- 30.03 in1016.9 mb - 0.00 in0.0 mm 0.00 in0.0 mm
08:30 PM 19.5°F-6.9°C 9.6°F-12.4°C 65% Calm Calm -- 30.03 in1016.9 mb - 0.00 in0.0 mm 0.00 in0.0 mm
08:40 PM 19.3°F-7.1°C 9.1°F-12.7°C 64% Calm Calm -- 30.02 in1016.6 mb - 0.00 in0.0 mm 0.00 in0.0 mm
08:50 PM 19.7°F-6.8°C 10.1°F-12.2°C 66% Calm Calm -- 30.02 in1016.6 mb - 0.00 in0.0 mm 0.00 in0.0 mm
09:00 PM 19.4°F-7.0°C 9.5°F-12.5°C 65% Calm Calm -- 30.02 in1016.6 mb - 0.00 in0.0 mm 0.00 in0.0 mm
09:10 PM 19.4°F-7.0°C 9.2°F-12.7°C 64% Calm Calm -- 30.03 in1016.9 mb - 0.00 in0.0 mm 0.00 in0.0 mm
09:20 PM 19.6°F-6.9°C 9.4°F-12.6°C 64% Calm Calm -- 30.03 in1016.9 mb - 0.00 in0.0 mm 0.00 in0.0 mm
09:30 PM 19.4°F-7.0°C 9.5°F-12.5°C 65% Calm Calm -- 30.02 in1016.6 mb - 0.00 in0.0 mm 0.00 in0.0 mm
09:40 PM 18.9°F-7.3°C 9.7°F-12.4°C 67% Calm Calm -- 30.03 in1016.9 mb - 0.00 in0.0 mm 0.00 in0.0 mm
09:50 PM 18.7°F-7.4°C 9.8°F-12.3°C 68% Calm Calm -- 30.03 in1016.9 mb - 0.00 in0.0 mm 0.00 in0.0 mm
10:00 PM 18.0°F-7.8°C 9.6°F-12.4°C 69% Calm Calm -- 30.02 in1016.6 mb - 0.00 in0.0 mm 0.00 in0.0 mm
10:10 PM 18.4°F-7.6°C 9.9°F-12.3°C 69% Calm Calm -- 30.02 in1016.6 mb - 0.00 in0.0 mm 0.00 in0.0 mm
10:20 PM 18.1°F-7.7°C 9.3°F-12.6°C 68% 1.2 mph NE1.9 kmh NE -- 30.02 in1016.6 mb - 0.00 in0.0 mm 0.00 in0.0 mm
10:30 PM 18.6°F-7.4°C 9.8°F-12.3°C 68% Calm Calm 2.3 mph3.7 kmh 30.02 in1016.6 mb - 0.00 in0.0 mm 0.00 in0.0 mm
10:40 PM 19.0°F-7.2°C 8.8°F-12.9°C 64% 1.2 mph W1.9 kmh W 2.3 mph3.7 kmh 30.02 in1016.6 mb - 0.00 in0.0 mm 0.00 in0.0 mm
10:50 PM 19.3°F-7.1°C 8.8°F-12.9°C 63% 1.2 mph NNE1.9 kmh NNE 1.2 mph1.9 kmh 30.02 in1016.6 mb - 0.00 in0.0 mm 0.00 in0.0 mm
11:00 PM 19.3°F-7.1°C 9.1°F-12.7°C 64% 1.2 mph WNW1.9 kmh WNW 2.3 mph3.7 kmh 30.03 in1016.9 mb - 0.00 in0.0 mm 0.00 in0.0 mm
11:10 PM 19.2°F-7.1°C 9.0°F-12.8°C 64% Calm Calm -- 30.03 in1016.9 mb - 0.00 in0.0 mm 0.00 in0.0 mm
11:20 PM 19.3°F-7.1°C 8.8°F-12.9°C 63% Calm Calm 2.3 mph3.7 kmh 30.03 in1016.9 mb - 0.00 in0.0 mm 0.00 in0.0 mm
11:30 PM 19.5°F-6.9°C 8.9°F-12.8°C 63% Calm Calm -- 30.03 in1016.9 mb - 0.00 in0.0 mm 0.00 in0.0 mm
11:40 PM 19.3°F-7.1°C 8.8°F-12.9°C 63% Calm Calm -- 30.03 in1016.9 mb - 0.00 in0.0 mm 0.00 in0.0 mm
11:50 PM 19.3°F-7.1°C 8.4°F-13.1°C 62% 2.3 mph W3.7 kmh W 5.8 mph9.3 kmh 30.03 in1016.9 mb - 0.00 in0.0 mm 0.00 in0.0 mm